createdAt,value
2023-09-01T00:00:10.102Z,81.24
2023-09-01T00:02:56.761Z,81.29
2023-09-01T00:05:23.224Z,81.15
2023-09-01T00:07:49.565Z,81.26
2023-09-01T00:10:16.646Z,81.33
2023-09-01T00:12:42.925Z,81.20
2023-09-01T00:15:10.123Z,81.07
2023-09-01T00:17:36.730Z,81.04
2023-09-01T00:20:04.394Z,81.20
2023-09-01T00:22:30.846Z,81.30
2023-09-01T00:24:57.318Z,81.40
2023-09-01T00:27:23.672Z,81.54
2023-09-01T00:29:50.014Z,82.06
2023-09-01T00:32:16.439Z,81.82
2023-09-01T00:34:42.759Z,81.55
2023-09-01T00:37:09.063Z,81.55
2023-09-01T00:39:35.419Z,81.64
2023-09-01T00:42:01.831Z,81.40
2023-09-01T00:44:28.236Z,81.96
2023-09-01T00:46:54.714Z,82.13
2023-09-01T00:49:21.012Z,82.42
2023-09-01T00:51:47.659Z,82.24
2023-09-01T00:54:14.512Z,82.13
2023-09-01T00:56:40.955Z,82.38
2023-09-01T00:59:09.636Z,82.37
2023-09-01T01:01:36.026Z,82.22
2023-09-01T01:04:07.755Z,82.16
2023-09-01T01:06:34.701Z,82.18
2023-09-01T01:09:01.065Z,82.21
2023-09-01T01:11:28.018Z,82.27
2023-09-01T01:13:54.434Z,82.23
2023-09-01T01:16:21.122Z,82.16
2023-09-01T01:18:47.458Z,82.14
2023-09-01T01:21:14.329Z,82.16
2023-09-01T01:23:40.859Z,82.04
2023-09-01T01:26:08.909Z,81.81
2023-09-01T01:28:35.429Z,81.90
2023-09-01T01:31:02.147Z,81.96
2023-09-01T01:33:28.590Z,82.03
2023-09-01T01:35:54.825Z,82.11
2023-09-01T01:38:21.209Z,82.25
2023-09-01T01:40:47.565Z,82.34
2023-09-01T01:43:14.418Z,82.39
2023-09-01T01:45:41.181Z,82.34
2023-09-01T01:48:08.393Z,82.22
2023-09-01T01:50:35.958Z,82.20
2023-09-01T01:53:06.101Z,82.21
2023-09-01T01:55:33.843Z,82.15
2023-09-01T01:58:00.042Z,82.12
2023-09-01T02:00:30.034Z,82.20
2023-09-01T02:02:56.623Z,82.42
2023-09-01T02:05:23.060Z,82.44
2023-09-01T02:07:49.406Z,82.47
2023-09-01T02:10:15.812Z,82.56
2023-09-01T02:12:42.150Z,82.60
2023-09-01T02:15:09.498Z,82.71
2023-09-01T02:17:36.311Z,82.86
2023-09-01T02:20:02.749Z,83.01
2023-09-01T02:22:29.057Z,83.04
2023-09-01T02:24:55.585Z,83.19
2023-09-01T02:27:22.220Z,83.19
2023-09-01T02:29:48.694Z,83.19
2023-09-01T02:32:14.965Z,83.11
2023-09-01T02:34:41.289Z,83.09
2023-09-01T02:37:07.579Z,83.22
2023-09-01T02:39:33.867Z,83.24
2023-09-01T02:42:00.848Z,83.17
2023-09-01T02:44:27.387Z,83.23
2023-09-01T02:46:53.706Z,83.42
2023-09-01T02:49:19.935Z,83.27
2023-09-01T02:51:49.391Z,83.16
2023-09-01T02:54:16.130Z,82.74
2023-09-01T02:56:42.774Z,82.37
2023-09-01T02:59:09.384Z,82.28
2023-09-01T03:01:35.665Z,82.50
2023-09-01T03:04:07.191Z,82.62
2023-09-01T03:06:33.542Z,82.93
2023-09-01T03:08:59.771Z,82.96
2023-09-01T03:11:27.258Z,82.88
2023-09-01T03:13:53.581Z,82.88
2023-09-01T03:16:20.131Z,83.18
2023-09-01T03:18:46.442Z,83.42
2023-09-01T03:21:15.388Z,83.57
2023-09-01T03:23:42.477Z,83.61
2023-09-01T03:26:09.362Z,83.87
2023-09-01T03:28:35.718Z,83.85
2023-09-01T03:31:03.197Z,83.77
2023-09-01T03:33:29.436Z,83.85
2023-09-01T03:35:55.995Z,83.93
2023-09-01T03:38:22.355Z,83.90
2023-09-01T03:40:48.699Z,83.72
2023-09-01T03:43:15.652Z,83.69
2023-09-01T03:45:41.975Z,83.70
2023-09-01T03:48:08.317Z,83.68
2023-09-01T03:50:34.707Z,83.63
2023-09-01T03:53:01.817Z,83.54
2023-09-01T03:55:28.207Z,83.52
2023-09-01T03:57:54.723Z,83.59
2023-09-01T04:00:21.015Z,83.56
2023-09-01T04:02:47.761Z,83.50
2023-09-01T04:05:14.721Z,83.43
2023-09-01T04:07:41.092Z,83.49
2023-09-01T04:10:07.865Z,83.62
2023-09-01T04:12:35.108Z,83.71
2023-09-01T04:15:01.443Z,83.62
2023-09-01T04:17:27.982Z,83.61
2023-09-01T04:19:54.258Z,83.74
2023-09-01T04:22:20.656Z,83.65
2023-09-01T04:24:46.866Z,83.69
2023-09-01T04:27:13.415Z,83.66
2023-09-01T04:29:43.153Z,83.52
2023-09-01T04:32:13.268Z,83.71
2023-09-01T04:34:39.616Z,83.92
2023-09-01T04:37:06.036Z,84.09
2023-09-01T04:39:32.525Z,84.10
2023-09-01T04:41:59.026Z,84.13
2023-09-01T04:44:25.475Z,84.01
2023-09-01T04:46:51.884Z,84.02
2023-09-01T04:49:18.395Z,84.16
2023-09-01T04:51:44.823Z,84.41
2023-09-01T04:54:11.028Z,84.86
2023-09-01T04:56:37.360Z,85.34
2023-09-01T04:59:03.634Z,85.59
2023-09-01T05:01:30.236Z,85.99
2023-09-01T05:03:56.901Z,86.43
2023-09-01T05:06:24.435Z,86.83
2023-09-01T05:08:50.715Z,87.22
2023-09-01T05:11:17.274Z,87.20
2023-09-01T05:13:43.629Z,87.11
2023-09-01T05:16:11.137Z,87.24
2023-09-01T05:18:37.877Z,86.99
2023-09-01T05:21:04.162Z,86.93
2023-09-01T05:23:32.887Z,87.18
2023-09-01T05:25:59.515Z,87.19
2023-09-01T05:28:25.838Z,87.13
2023-09-01T05:30:52.458Z,86.93
2023-09-01T05:33:19.431Z,86.90
2023-09-01T05:35:45.707Z,86.84
2023-09-01T05:38:12.284Z,87.15
2023-09-01T05:40:39.103Z,87.07
2023-09-01T05:43:07.856Z,87.44
2023-09-01T05:45:36.259Z,87.46
2023-09-01T05:48:02.753Z,87.13
2023-09-01T05:50:29.011Z,86.86
2023-09-01T05:52:55.258Z,86.63
2023-09-01T05:55:21.597Z,86.56
2023-09-01T05:57:48.688Z,86.31
2023-09-01T06:00:15.817Z,86.05
2023-09-01T06:02:42.273Z,85.83
2023-09-01T06:05:08.727Z,85.77
2023-09-01T06:07:35.124Z,85.74
2023-09-01T06:10:01.482Z,85.06
2023-09-01T06:12:28.039Z,84.60
2023-09-01T06:14:54.299Z,84.39
2023-09-01T06:17:29.531Z,84.29
2023-09-01T06:20:05.130Z,83.55
2023-09-01T06:22:31.501Z,83.10
2023-09-01T06:24:57.903Z,82.71
2023-09-01T06:27:24.262Z,83.14
2023-09-01T06:29:50.542Z,83.28
2023-09-01T06:32:16.835Z,83.24
2023-09-01T06:34:43.140Z,83.31
2023-09-01T06:37:09.490Z,83.46
2023-09-01T06:39:35.876Z,83.13
2023-09-01T06:42:02.514Z,83.20
2023-09-01T06:44:28.859Z,82.75
2023-09-01T06:46:55.070Z,82.76
2023-09-01T06:49:21.783Z,82.58
2023-09-01T06:51:48.161Z,82.12
2023-09-01T06:54:14.621Z,81.83
2023-09-01T06:56:41.076Z,81.76
2023-09-01T06:59:08.037Z,81.09
2023-09-01T07:01:34.428Z,81.29
2023-09-01T07:04:01.103Z,81.00
2023-09-01T07:06:27.980Z,80.59
2023-09-01T07:08:54.261Z,80.92
2023-09-01T07:11:21.752Z,79.78
2023-09-01T07:13:48.112Z,79.72
2023-09-01T07:16:14.886Z,79.50
2023-09-01T07:18:41.402Z,79.84
2023-09-01T07:21:07.840Z,79.80
2023-09-01T07:23:34.291Z,80.13
2023-09-01T07:26:00.697Z,79.67
2023-09-01T07:28:26.997Z,79.04
2023-09-01T07:30:54.081Z,79.09
2023-09-01T07:33:20.418Z,79.38
2023-09-01T07:35:47.226Z,79.55
2023-09-01T07:38:15.082Z,79.56
2023-09-01T07:40:41.694Z,79.69
2023-09-01T07:43:09.066Z,79.72
2023-09-01T07:45:36.366Z,79.56
2023-09-01T07:48:19.013Z,79.32
2023-09-01T07:50:49.419Z,78.91
2023-09-01T07:53:15.721Z,78.89
2023-09-01T07:55:42.270Z,78.86
2023-09-01T07:58:11.951Z,78.80
2023-09-01T08:00:40.574Z,78.50
2023-09-01T08:03:11.187Z,79.17
2023-09-01T08:05:38.337Z,79.24
2023-09-01T08:08:04.704Z,78.03
2023-09-01T08:10:31.263Z,77.90
2023-09-01T08:12:57.669Z,77.73
2023-09-01T08:15:23.930Z,77.31
2023-09-01T08:17:53.078Z,77.20
2023-09-01T08:20:19.512Z,77.43
2023-09-01T08:22:45.768Z,77.15
2023-09-01T08:25:12.265Z,77.04
2023-09-01T08:27:38.558Z,77.14
2023-09-01T08:30:04.902Z,76.58
2023-09-01T08:32:31.334Z,76.42
2023-09-01T08:34:57.972Z,76.19
2023-09-01T08:37:24.197Z,76.08
2023-09-01T08:39:50.480Z,76.00
2023-09-01T08:42:18.213Z,75.74
2023-09-01T08:44:44.453Z,73.64
2023-09-01T08:47:11.393Z,72.93
2023-09-01T08:49:40.039Z,69.64
2023-09-01T08:52:06.541Z,64.46
2023-09-01T08:54:35.206Z,60.49
2023-09-01T08:57:01.506Z,59.10
2023-09-01T08:59:29.390Z,57.49
2023-09-01T09:01:55.999Z,56.81
2023-09-01T09:04:22.429Z,58.23
2023-09-01T09:06:48.781Z,59.56
2023-09-01T09:09:18.635Z,59.13
2023-09-01T09:11:45.030Z,58.46
2023-09-01T09:14:11.556Z,58.11
2023-09-01T09:16:37.997Z,56.90
2023-09-01T09:19:05.516Z,56.50
2023-09-01T09:21:32.092Z,55.49
2023-09-01T09:24:19.735Z,56.07
2023-09-01T09:26:47.261Z,55.85
2023-09-01T09:29:15.085Z,54.66
2023-09-01T09:31:41.541Z,53.53
2023-09-01T09:34:08.151Z,53.95
2023-09-01T09:36:37.196Z,54.70
2023-09-01T09:39:06.715Z,56.36
2023-09-01T09:41:33.184Z,56.14
2023-09-01T09:43:59.455Z,55.79
2023-09-01T09:46:27.014Z,53.49
2023-09-01T09:48:54.838Z,51.49
2023-09-01T09:51:21.170Z,53.79
2023-09-01T09:53:47.422Z,52.11
2023-09-01T09:56:13.823Z,52.69
2023-09-01T09:58:40.176Z,53.36
2023-09-01T10:01:06.671Z,53.15
2023-09-01T10:03:33.130Z,52.67
2023-09-01T10:05:59.710Z,53.62
2023-09-01T10:08:26.147Z,54.00
2023-09-01T10:10:52.413Z,54.20
2023-09-01T10:13:18.673Z,54.35
2023-09-01T10:15:45.165Z,53.50
2023-09-01T10:18:11.652Z,53.22
2023-09-01T10:20:38.332Z,53.19
2023-09-01T10:23:04.732Z,51.43
2023-09-01T10:25:32.135Z,51.23
2023-09-01T10:27:58.548Z,50.55
2023-09-01T10:30:24.802Z,50.81
2023-09-01T10:32:51.372Z,49.71
2023-09-01T10:35:17.720Z,50.50
2023-09-01T10:37:44.184Z,50.39
2023-09-01T10:40:10.464Z,51.18
2023-09-01T10:42:36.780Z,51.02
2023-09-01T10:45:03.554Z,51.22
2023-09-01T10:47:29.965Z,50.12
2023-09-01T10:49:56.524Z,48.40
2023-09-01T10:52:23.837Z,49.09
2023-09-01T10:54:50.343Z,48.89
2023-09-01T10:57:16.596Z,49.07
2023-09-01T10:59:44.308Z,50.07
2023-09-01T11:02:11.760Z,50.59
2023-09-01T11:04:39.586Z,51.37
2023-09-01T11:07:08.660Z,50.06
2023-09-01T11:09:34.951Z,50.10
2023-09-01T11:12:01.221Z,50.68
2023-09-01T11:14:27.672Z,49.54
2023-09-01T11:16:54.088Z,47.94
2023-09-01T11:19:20.494Z,48.48
2023-09-01T11:21:46.796Z,48.86
2023-09-01T11:24:13.695Z,49.63
2023-09-01T11:26:42.143Z,49.41
2023-09-01T11:29:09.420Z,49.24
2023-09-01T11:31:35.687Z,49.36
2023-09-01T11:34:02.564Z,50.82
2023-09-01T11:36:29.047Z,49.93
2023-09-01T11:38:55.796Z,50.97
2023-09-01T11:41:22.252Z,50.46
2023-09-01T11:43:48.780Z,50.46
2023-09-01T11:46:15.277Z,50.59
2023-09-01T11:48:41.782Z,51.24
2023-09-01T11:51:09.344Z,50.89
2023-09-01T11:53:36.251Z,49.23
2023-09-01T11:56:02.710Z,51.34
2023-09-01T11:58:28.995Z,51.20
2023-09-01T12:00:55.930Z,49.36
2023-09-01T12:03:22.725Z,48.64
2023-09-01T12:05:49.536Z,48.90
2023-09-01T12:08:15.745Z,49.65
2023-09-01T12:10:41.960Z,49.40
2023-09-01T12:13:08.487Z,48.94
2023-09-01T12:15:35.439Z,49.46
2023-09-01T12:18:02.175Z,48.85
2023-09-01T12:20:29.240Z,49.10
2023-09-01T12:22:55.692Z,49.38
2023-09-01T12:25:21.943Z,48.47
2023-09-01T12:27:51.833Z,48.52
2023-09-01T12:30:18.218Z,48.86
2023-09-01T12:32:44.506Z,48.98
2023-09-01T12:35:11.121Z,49.43
2023-09-01T12:37:37.684Z,50.56
2023-09-01T12:40:05.340Z,50.34
2023-09-01T12:42:32.040Z,50.65
2023-09-01T12:44:58.348Z,51.30
2023-09-01T12:47:24.540Z,50.57
2023-09-01T12:49:51.056Z,50.00
2023-09-01T12:52:18.178Z,51.31
2023-09-01T12:54:44.492Z,51.99
2023-09-01T12:57:10.800Z,51.86
2023-09-01T12:59:38.273Z,52.26
2023-09-01T13:02:05.087Z,51.52
2023-09-01T13:04:33.633Z,51.45
2023-09-01T13:07:00.136Z,52.14
2023-09-01T13:09:26.424Z,52.20
2023-09-01T13:11:53.081Z,51.51
2023-09-01T13:14:22.143Z,50.71
2023-09-01T13:16:50.680Z,51.04
2023-09-01T13:19:17.256Z,51.13
2023-09-01T13:21:43.645Z,51.52
2023-09-01T13:24:10.579Z,51.80
2023-09-01T13:26:36.955Z,52.55
2023-09-01T13:29:03.730Z,53.00
2023-09-01T13:31:30.174Z,53.60
2023-09-01T13:33:57.155Z,54.27
2023-09-01T13:36:24.539Z,54.81
2023-09-01T13:38:51.254Z,55.09
2023-09-01T13:41:18.896Z,53.36
2023-09-01T13:43:45.412Z,52.76
2023-09-01T13:46:11.796Z,53.92
2023-09-01T13:48:38.119Z,53.74
2023-09-01T13:51:04.753Z,53.34
2023-09-01T13:53:31.138Z,53.58
2023-09-01T13:55:57.340Z,54.20
2023-09-01T13:58:23.898Z,54.11
2023-09-01T14:00:50.316Z,53.34
2023-09-01T14:03:16.935Z,53.47
2023-09-01T14:05:43.847Z,53.32
2023-09-01T14:08:10.192Z,53.63
2023-09-01T14:10:36.584Z,54.14
2023-09-01T14:13:05.403Z,53.75
2023-09-01T14:15:32.256Z,53.89
2023-09-01T14:17:58.685Z,53.76
2023-09-01T14:20:27.373Z,53.66
2023-09-01T14:22:55.166Z,53.35
2023-09-01T14:25:21.477Z,54.02
2023-09-01T14:27:50.120Z,54.20
2023-09-01T14:30:16.405Z,54.71
2023-09-01T14:32:42.689Z,54.14
2023-09-01T14:35:09.208Z,54.00
2023-09-01T14:37:35.576Z,54.10
2023-09-01T14:40:03.869Z,54.40
2023-09-01T14:42:30.145Z,54.26
2023-09-01T14:44:56.359Z,54.29
2023-09-01T14:47:25.258Z,54.13
2023-09-01T14:49:51.831Z,55.04
2023-09-01T14:52:19.325Z,55.09
2023-09-01T14:54:45.678Z,55.40
2023-09-01T14:57:12.162Z,55.29
2023-09-01T14:59:38.395Z,55.57
2023-09-01T15:02:06.033Z,56.12
2023-09-01T15:04:32.404Z,56.11
2023-09-01T15:06:58.943Z,56.50
2023-09-01T15:09:25.349Z,56.15
2023-09-01T15:11:51.975Z,55.88
2023-09-01T15:14:18.786Z,55.85
2023-09-01T15:16:45.388Z,56.04
2023-09-01T15:19:13.696Z,56.31
2023-09-01T15:21:40.362Z,56.62
2023-09-01T15:24:06.657Z,56.77
2023-09-01T15:26:33.451Z,56.69
2023-09-01T15:28:59.817Z,57.06
2023-09-01T15:31:26.252Z,57.35
2023-09-01T15:33:53.016Z,57.69
2023-09-01T15:36:19.270Z,57.86
2023-09-01T15:38:45.567Z,58.23
2023-09-01T15:41:12.649Z,58.09
2023-09-01T15:43:39.187Z,58.08
2023-09-01T15:46:05.514Z,58.37
2023-09-01T15:48:32.133Z,58.31
2023-09-01T15:50:58.720Z,58.61
2023-09-01T15:53:26.872Z,58.74
2023-09-01T15:55:56.146Z,58.88
2023-09-01T15:58:22.503Z,59.28
2023-09-01T16:00:48.713Z,59.31
2023-09-01T16:03:23.273Z,59.54
2023-09-01T16:05:55.635Z,59.77
2023-09-01T16:08:22.085Z,60.06
2023-09-01T16:10:48.439Z,60.21
2023-09-01T16:13:15.578Z,60.31
2023-09-01T16:15:42.673Z,60.27
2023-09-01T16:18:09.034Z,60.28
2023-09-01T16:20:36.013Z,60.43
2023-09-01T16:23:02.521Z,60.26
2023-09-01T16:25:28.924Z,60.05
2023-09-01T16:27:55.412Z,60.25
2023-09-01T16:30:21.898Z,60.34
2023-09-01T16:32:48.173Z,60.50
2023-09-01T16:35:24.043Z,60.41
2023-09-01T16:37:51.348Z,60.68
2023-09-01T16:40:17.611Z,60.82
2023-09-01T16:42:44.324Z,61.15
2023-09-01T16:45:10.648Z,61.51
2023-09-01T16:47:37.005Z,61.70
2023-09-01T16:50:04.322Z,62.11
2023-09-01T16:52:30.653Z,62.02
2023-09-01T16:54:57.085Z,62.37
2023-09-01T16:57:23.648Z,62.66
2023-09-01T16:59:49.913Z,62.86
2023-09-01T17:02:16.367Z,63.12
2023-09-01T17:04:42.843Z,63.43
2023-09-01T17:07:09.354Z,63.68
2023-09-01T17:09:35.905Z,63.89
2023-09-01T17:12:02.755Z,64.02
2023-09-01T17:14:29.382Z,64.18
2023-09-01T17:16:55.842Z,64.27
2023-09-01T17:19:24.216Z,64.45
2023-09-01T17:21:51.929Z,64.66
2023-09-01T17:24:18.542Z,64.43
2023-09-01T17:26:45.150Z,64.61
2023-09-01T17:29:13.573Z,64.63
2023-09-01T17:31:40.842Z,64.79
2023-09-01T17:34:07.292Z,65.12
2023-09-01T17:36:34.055Z,65.16
2023-09-01T17:39:00.384Z,65.10
2023-09-01T17:41:26.972Z,65.35
2023-09-01T17:43:54.611Z,65.37
2023-09-01T17:46:20.926Z,65.67
2023-09-01T17:48:47.396Z,66.26
2023-09-01T17:51:13.741Z,66.26
2023-09-01T17:53:40.158Z,66.82
2023-09-01T17:56:07.850Z,67.04
2023-09-01T17:58:34.153Z,67.20
2023-09-01T18:01:00.561Z,67.66
2023-09-01T18:03:26.893Z,67.65
2023-09-01T18:05:53.388Z,67.86
2023-09-01T18:08:19.930Z,68.15
2023-09-01T18:10:46.492Z,68.42
2023-09-01T18:13:15.324Z,68.40
2023-09-01T18:15:42.530Z,68.44
2023-09-01T18:18:08.844Z,68.52
2023-09-01T18:20:35.724Z,68.45
2023-09-01T18:23:02.322Z,68.61
2023-09-01T18:25:28.960Z,68.95
2023-09-01T18:27:55.292Z,69.31
2023-09-01T18:30:21.804Z,69.39
2023-09-01T18:32:48.172Z,69.48
2023-09-01T18:35:15.576Z,69.82
2023-09-01T18:37:44.304Z,70.00
2023-09-01T18:40:10.570Z,70.41
2023-09-01T18:42:42.059Z,70.62
2023-09-01T18:45:11.489Z,70.94
2023-09-01T18:47:37.828Z,70.88
2023-09-01T18:50:04.212Z,70.89
2023-09-01T18:52:30.678Z,71.10
2023-09-01T18:54:56.956Z,71.21
2023-09-01T18:57:23.498Z,70.96
2023-09-01T18:59:53.069Z,71.17
2023-09-01T19:02:21.944Z,71.11
2023-09-01T19:04:48.223Z,71.38
2023-09-01T19:07:16.883Z,71.17
2023-09-01T19:09:43.129Z,71.13
2023-09-01T19:12:11.644Z,71.21
2023-09-01T19:14:37.869Z,71.00
2023-09-01T19:17:04.226Z,70.96
2023-09-01T19:19:30.959Z,71.31
2023-09-01T19:21:57.333Z,71.72
2023-09-01T19:24:26.627Z,71.51
2023-09-01T19:26:54.830Z,71.61
2023-09-01T19:29:22.562Z,71.54
2023-09-01T19:31:51.777Z,71.49
2023-09-01T19:34:18.200Z,71.43
2023-09-01T19:36:46.395Z,71.63
2023-09-01T19:39:12.668Z,71.53
2023-09-01T19:41:39.484Z,71.47
2023-09-01T19:44:07.558Z,71.65
2023-09-01T19:46:35.447Z,71.96
2023-09-01T19:49:01.712Z,71.98
2023-09-01T19:51:28.012Z,72.23
2023-09-01T19:53:54.565Z,72.56
2023-09-01T19:56:21.082Z,72.39
2023-09-01T19:58:47.427Z,72.70
2023-09-01T20:01:15.152Z,73.02
2023-09-01T20:03:43.616Z,73.46
2023-09-01T20:06:09.878Z,73.84
2023-09-01T20:08:36.142Z,73.61
2023-09-01T20:11:05.884Z,73.40
2023-09-01T20:13:32.223Z,73.38
2023-09-01T20:15:58.482Z,73.63
2023-09-01T20:18:24.797Z,74.01
2023-09-01T20:20:51.151Z,74.36
2023-09-01T20:23:17.892Z,74.42
2023-09-01T20:25:44.446Z,74.71
2023-09-01T20:28:10.792Z,75.04
2023-09-01T20:30:37.063Z,75.22
2023-09-01T20:33:04.018Z,75.26
2023-09-01T20:35:30.437Z,75.19
2023-09-01T20:37:57.299Z,75.07
2023-09-01T20:40:24.301Z,75.02
2023-09-01T20:42:50.639Z,74.89
2023-09-01T20:45:16.983Z,74.86
2023-09-01T20:47:45.168Z,74.78
2023-09-01T20:50:11.513Z,74.58
2023-09-01T20:52:37.757Z,74.71
2023-09-01T20:55:07.130Z,74.99
2023-09-01T20:57:33.360Z,75.13
2023-09-01T20:59:59.692Z,75.01
2023-09-01T21:02:26.039Z,75.19
2023-09-01T21:04:52.319Z,75.32
2023-09-01T21:07:18.780Z,75.46
2023-09-01T21:09:45.648Z,75.40
2023-09-01T21:12:11.956Z,75.33
2023-09-01T21:14:38.700Z,75.41
2023-09-01T21:17:05.046Z,75.82
2023-09-01T21:19:31.547Z,75.85
2023-09-01T21:21:57.928Z,76.29
2023-09-01T21:24:24.193Z,76.46
2023-09-01T21:26:52.549Z,76.58
2023-09-01T21:29:18.931Z,76.50
2023-09-01T21:31:46.510Z,76.61
2023-09-01T21:34:13.269Z,76.69
2023-09-01T21:36:40.121Z,77.17
2023-09-01T21:39:06.887Z,77.33
2023-09-01T21:41:33.197Z,77.73
2023-09-01T21:44:01.687Z,78.20
2023-09-01T21:46:28.190Z,78.65
2023-09-01T21:48:54.409Z,78.48
2023-09-01T21:51:20.627Z,78.39
2023-09-01T21:53:47.212Z,78.38
2023-09-01T21:56:13.675Z,78.96
2023-09-01T21:58:40.013Z,78.88
2023-09-01T22:01:06.434Z,78.77
2023-09-01T22:03:32.973Z,78.47
2023-09-01T22:05:59.692Z,78.35
2023-09-01T22:08:25.938Z,78.42
2023-09-01T22:10:52.342Z,78.52
2023-09-01T22:13:18.822Z,78.73
2023-09-01T22:15:45.691Z,78.84
2023-09-01T22:18:12.087Z,79.07
2023-09-01T22:20:38.679Z,79.25
2023-09-01T22:23:05.571Z,78.83
2023-09-01T22:25:32.054Z,78.69
2023-09-01T22:27:59.317Z,78.91
2023-09-01T22:30:26.321Z,78.67
2023-09-01T22:32:55.086Z,78.79
2023-09-01T22:35:22.646Z,79.03
2023-09-01T22:37:54.362Z,78.81
2023-09-01T22:40:29.852Z,78.66
2023-09-01T22:42:56.486Z,78.71
2023-09-01T22:45:25.716Z,78.70
2023-09-01T22:47:52.342Z,78.69
2023-09-01T22:50:20.105Z,78.93
2023-09-01T22:52:48.096Z,79.31
2023-09-01T22:55:14.648Z,79.14
2023-09-01T22:57:41.093Z,78.97
2023-09-01T23:00:07.512Z,79.19
2023-09-01T23:02:33.854Z,79.27
2023-09-01T23:05:00.249Z,79.31
2023-09-01T23:07:26.564Z,79.55
2023-09-01T23:09:52.864Z,79.77
2023-09-01T23:12:19.125Z,79.97
2023-09-01T23:14:45.393Z,80.20
2023-09-01T23:17:11.747Z,80.12
2023-09-01T23:19:38.638Z,80.07
2023-09-01T23:22:04.960Z,80.20
2023-09-01T23:24:31.752Z,80.22
2023-09-01T23:27:01.203Z,80.12
2023-09-01T23:29:27.491Z,79.79
2023-09-01T23:31:53.767Z,79.65
2023-09-01T23:34:21.405Z,79.74
2023-09-01T23:36:47.895Z,79.74
2023-09-01T23:39:14.144Z,79.51
2023-09-01T23:41:44.941Z,79.58
2023-09-01T23:44:11.239Z,79.48
2023-09-01T23:46:38.744Z,79.40
2023-09-01T23:49:06.746Z,79.39
2023-09-01T23:51:33.121Z,79.43
2023-09-01T23:54:01.784Z,79.33
2023-09-01T23:56:28.155Z,79.11
2023-09-01T23:58:54.614Z,78.93
